createdAt,value
2022-09-26T00:01:45.853Z,2.97
2022-09-26T00:04:22.985Z,2.25
2022-09-26T00:06:53.378Z,4.13
2022-09-26T00:09:24.455Z,3.55
2022-09-26T00:11:55.268Z,3.38
2022-09-26T00:14:27.362Z,2.55
2022-09-26T00:16:57.003Z,3.17
2022-09-26T00:19:27.506Z,3.53
2022-09-26T00:21:57.348Z,1.77
2022-09-26T00:24:25.625Z,6.53
2022-09-26T00:26:54.106Z,7.00
2022-09-26T00:29:22.541Z,5.22
2022-09-26T00:31:51.090Z,4.47
2022-09-26T00:34:22.296Z,7.25
2022-09-26T00:36:53.010Z,8.98
2022-09-26T00:39:21.370Z,6.43
2022-09-26T00:41:49.655Z,4.47
2022-09-26T00:44:41.331Z,8.48
2022-09-26T00:47:30.859Z,6.43
2022-09-26T00:50:04.027Z,10.10
2022-09-26T00:52:38.489Z,9.63
2022-09-26T00:55:11.787Z,7.53
2022-09-26T00:57:46.798Z,11.50
2022-09-26T01:00:16.357Z,9.40
2022-09-26T01:02:46.785Z,8.50
2022-09-26T01:05:18.360Z,8.88
2022-09-26T01:07:49.029Z,9.70
2022-09-26T01:10:19.224Z,8.70
2022-09-26T01:12:48.930Z,9.85
2022-09-26T01:15:18.753Z,9.82
2022-09-26T01:17:48.052Z,11.02
2022-09-26T01:20:28.370Z,13.05
2022-09-26T01:23:39.547Z,14.32
2022-09-26T01:26:41.876Z,8.13
2022-09-26T01:30:04.302Z,16.80
2022-09-26T01:32:58.351Z,13.80
2022-09-26T01:35:42.532Z,25.63
2022-09-26T01:38:21.636Z,19.75
2022-09-26T01:41:03.258Z,21.92
2022-09-26T01:43:37.589Z,21.80
2022-09-26T01:46:13.334Z,18.40
2022-09-26T01:48:48.603Z,21.83
2022-09-26T01:51:21.225Z,20.15
2022-09-26T01:53:56.591Z,23.75
2022-09-26T01:56:28.181Z,19.90
2022-09-26T01:59:01.301Z,26.48
2022-09-26T02:01:32.938Z,24.33
2022-09-26T02:04:10.505Z,29.40
2022-09-26T02:06:43.888Z,28.20
2022-09-26T02:09:18.249Z,33.85
2022-09-26T02:11:52.373Z,31.05
2022-09-26T02:14:27.673Z,36.15
2022-09-26T02:17:02.189Z,31.40
2022-09-26T02:19:38.415Z,34.75
2022-09-26T02:22:07.079Z,34.42
2022-09-26T02:24:35.860Z,32.08
2022-09-26T02:27:04.389Z,33.63
2022-09-26T02:29:32.635Z,30.65
2022-09-26T02:32:05.979Z,26.83
2022-09-26T02:34:36.397Z,29.88
2022-09-26T02:37:06.416Z,25.95
2022-09-26T02:39:35.213Z,29.70
2022-09-26T02:42:15.050Z,33.35
2022-09-26T02:45:08.463Z,33.30
2022-09-26T02:48:00.941Z,39.78
2022-09-26T02:50:48.205Z,38.42
2022-09-26T02:53:35.402Z,36.47
2022-09-26T02:56:14.749Z,39.42
2022-09-26T02:58:48.805Z,35.15
2022-09-26T03:01:26.135Z,42.35
2022-09-26T03:04:01.627Z,34.50
2022-09-26T03:06:38.737Z,40.25
2022-09-26T03:09:09.848Z,40.05
2022-09-26T03:11:38.973Z,40.20
2022-09-26T03:14:09.667Z,41.97
2022-09-26T03:16:45.502Z,47.00
2022-09-26T03:19:22.725Z,48.70
2022-09-26T03:21:52.614Z,43.95
2022-09-26T03:24:22.005Z,42.45
2022-09-26T03:26:52.031Z,54.80
2022-09-26T03:29:21.502Z,42.80
2022-09-26T03:31:50.684Z,49.17
2022-09-26T03:34:19.318Z,44.45
2022-09-26T03:36:48.105Z,47.00
2022-09-26T03:39:17.990Z,47.45
2022-09-26T03:41:47.033Z,42.60
2022-09-26T03:44:16.333Z,54.90
2022-09-26T03:46:44.694Z,53.20
2022-09-26T03:49:13.498Z,50.75
2022-09-26T03:51:43.980Z,68.20
2022-09-26T03:54:13.260Z,62.28
2022-09-26T03:56:43.079Z,62.70
2022-09-26T03:59:11.925Z,55.20
2022-09-26T04:01:41.869Z,52.00
2022-09-26T04:04:10.415Z,59.97
2022-09-26T04:06:39.476Z,60.88
2022-09-26T04:09:16.587Z,58.20
2022-09-26T04:11:47.740Z,57.92
2022-09-26T04:14:16.303Z,45.47
2022-09-26T04:16:46.013Z,61.42
2022-09-26T04:19:15.119Z,61.33
2022-09-26T04:21:43.936Z,54.90
2022-09-26T04:24:16.500Z,53.42
2022-09-26T04:26:46.981Z,53.83
2022-09-26T04:29:16.654Z,51.60
2022-09-26T04:31:45.172Z,57.95
2022-09-26T04:34:15.131Z,49.58
2022-09-26T04:36:43.996Z,51.65
2022-09-26T04:39:13.207Z,52.95
2022-09-26T04:41:42.015Z,55.13
2022-09-26T04:44:13.302Z,51.17
2022-09-26T04:46:41.887Z,47.40
2022-09-26T04:49:11.898Z,49.25
2022-09-26T04:51:40.522Z,47.20
2022-09-26T04:54:09.413Z,46.47
2022-09-26T04:56:37.794Z,42.15
2022-09-26T04:59:10.724Z,47.38
2022-09-26T05:01:40.887Z,53.00
2022-09-26T05:04:10.192Z,49.83
2022-09-26T05:06:39.364Z,51.70
2022-09-26T05:09:08.441Z,47.47
2022-09-26T05:11:36.765Z,43.03
2022-09-26T05:14:05.571Z,45.80
2022-09-26T05:16:33.927Z,50.03
2022-09-26T05:19:04.738Z,50.20
2022-09-26T05:21:33.549Z,42.75
2022-09-26T05:24:19.433Z,51.10
2022-09-26T05:26:50.433Z,46.33
2022-09-26T05:29:20.701Z,47.30
2022-09-26T05:31:49.295Z,44.05
2022-09-26T05:34:20.563Z,50.40
2022-09-26T05:36:48.980Z,51.42
2022-09-26T05:39:43.461Z,49.10
2022-09-26T05:42:11.953Z,65.68
2022-09-26T05:44:44.119Z,45.13
2022-09-26T05:47:13.269Z,45.00
2022-09-26T05:53:12.255Z,44.83
2022-09-26T05:55:40.651Z,43.97
2022-09-26T05:58:10.243Z,45.95
2022-09-26T06:00:39.164Z,43.50
2022-09-26T06:03:07.824Z,35.97
2022-09-26T06:05:38.460Z,45.28
2022-09-26T06:08:07.348Z,39.95
2022-09-26T06:10:35.639Z,42.47
2022-09-26T06:13:05.058Z,40.45
2022-09-26T06:15:33.833Z,41.60
2022-09-26T06:18:05.277Z,58.60
2022-09-26T06:20:34.500Z,53.90
2022-09-26T06:23:05.297Z,50.03
2022-09-26T06:25:33.580Z,40.60
2022-09-26T06:28:03.483Z,41.45
2022-09-26T06:30:33.190Z,41.42
2022-09-26T06:33:02.249Z,36.17
2022-09-26T06:35:34.280Z,34.33
2022-09-26T06:38:05.102Z,37.72
2022-09-26T06:40:33.911Z,36.30
2022-09-26T06:43:02.341Z,39.60
2022-09-26T06:45:32.097Z,37.60
2022-09-26T06:48:03.306Z,38.00
2022-09-26T06:50:32.383Z,40.40
2022-09-26T06:53:12.816Z,35.63
2022-09-26T06:55:42.133Z,32.55
2022-09-26T06:58:12.237Z,41.45
2022-09-26T07:00:42.638Z,31.63
2022-09-26T07:03:13.690Z,34.38
2022-09-26T07:05:42.720Z,31.35
2022-09-26T07:08:32.584Z,28.98
2022-09-26T07:11:50.359Z,38.10
2022-09-26T07:14:08.487Z,34.83
2022-09-26T07:16:36.891Z,40.42
2022-09-26T07:19:05.371Z,37.53
2022-09-26T07:21:48.095Z,37.95
2022-09-26T07:24:25.289Z,32.75
2022-09-26T07:27:03.344Z,35.33
2022-09-26T07:29:39.362Z,34.35
2022-09-26T07:32:07.690Z,37.85
2022-09-26T07:34:36.113Z,27.55
2022-09-26T07:37:04.744Z,26.40
2022-09-26T07:39:35.090Z,33.25
2022-09-26T07:42:03.497Z,25.45
2022-09-26T07:47:38.235Z,28.08
2022-09-26T07:50:15.987Z,27.70
2022-09-26T07:52:45.890Z,27.00
2022-09-26T07:55:18.376Z,31.25
2022-09-26T07:57:48.492Z,27.95
2022-09-26T08:00:19.703Z,23.92
2022-09-26T08:02:49.231Z,20.15
2022-09-26T08:05:21.787Z,24.77
2022-09-26T08:07:51.477Z,27.98
2022-09-26T08:10:24.626Z,27.95
2022-09-26T08:12:54.078Z,30.05
2022-09-26T08:15:23.884Z,26.00
2022-09-26T08:17:52.184Z,25.95
2022-09-26T08:20:21.060Z,24.05
2022-09-26T08:22:49.853Z,20.65
2022-09-26T08:25:18.389Z,20.58
2022-09-26T08:27:48.661Z,28.85
2022-09-26T08:30:18.013Z,29.88
2022-09-26T08:32:54.855Z,23.05
2022-09-26T08:35:23.204Z,29.65
2022-09-26T08:37:52.731Z,23.60
2022-09-26T08:40:28.739Z,23.17
2022-09-26T08:43:07.513Z,27.20
2022-09-26T08:46:01.469Z,22.23
2022-09-26T08:48:43.554Z,25.88
2022-09-26T08:51:28.257Z,20.92
2022-09-26T08:54:05.920Z,26.52
2022-09-26T08:56:38.635Z,20.30
2022-09-26T08:59:15.774Z,23.33
2022-09-26T09:01:46.845Z,20.90
2022-09-26T09:04:19.335Z,16.65
2022-09-26T09:06:51.807Z,21.38
2022-09-26T09:09:20.812Z,22.88
2022-09-26T09:12:04.529Z,23.67
2022-09-26T09:15:02.389Z,19.50
2022-09-26T09:17:45.732Z,21.45
2022-09-26T09:20:19.807Z,24.25
2022-09-26T09:23:12.470Z,18.42
2022-09-26T09:25:48.024Z,32.75
2022-09-26T09:28:32.766Z,20.40
2022-09-26T09:31:05.869Z,24.38
2022-09-26T09:33:39.673Z,24.80
2022-09-26T09:36:12.172Z,25.02
2022-09-26T09:38:44.289Z,19.08
2022-09-26T09:41:16.148Z,20.73
2022-09-26T09:43:48.814Z,24.92
2022-09-26T09:46:26.663Z,25.95
2022-09-26T09:49:00.199Z,21.73
2022-09-26T09:51:40.429Z,23.00
2022-09-26T09:54:31.332Z,23.38
2022-09-26T09:57:22.411Z,19.13
2022-09-26T10:00:10.001Z,17.63
2022-09-26T10:02:47.913Z,21.30
2022-09-26T10:05:25.110Z,21.30
2022-09-26T10:07:58.223Z,22.15
2022-09-26T10:10:37.694Z,13.10
2022-09-26T10:13:09.279Z,15.88
2022-09-26T10:15:41.787Z,18.80
2022-09-26T10:18:26.106Z,14.93
2022-09-26T10:20:59.595Z,13.18
2022-09-26T10:23:32.948Z,14.38
2022-09-26T10:26:06.015Z,19.70
2022-09-26T10:28:38.086Z,16.00
2022-09-26T10:31:10.784Z,19.55
2022-09-26T10:33:47.370Z,15.80
2022-09-26T10:36:21.877Z,16.08
2022-09-26T10:39:11.097Z,21.15
2022-09-26T10:41:45.967Z,13.38
2022-09-26T10:44:26.380Z,15.15
2022-09-26T10:46:58.742Z,8.80
2022-09-26T10:49:36.638Z,9.30
2022-09-26T10:52:14.791Z,9.52
2022-09-26T10:54:57.602Z,11.15
2022-09-26T10:57:30.671Z,14.38
2022-09-26T11:00:01.748Z,11.13
2022-09-26T11:02:30.473Z,8.77
2022-09-26T11:05:19.813Z,11.73
2022-09-26T11:07:49.634Z,10.48
2022-09-26T11:10:25.728Z,8.63
2022-09-26T11:13:00.551Z,10.93
2022-09-26T11:15:30.275Z,8.55
2022-09-26T11:17:59.847Z,10.80
2022-09-26T11:20:42.058Z,9.02
2022-09-26T11:23:31.743Z,9.88
2022-09-26T11:26:15.681Z,14.02
2022-09-26T11:28:49.014Z,11.60
2022-09-26T11:31:26.403Z,11.63
2022-09-26T11:34:04.653Z,10.40
2022-09-26T11:36:57.040Z,9.27
2022-09-26T11:39:41.827Z,9.95
2022-09-26T11:42:26.186Z,7.07
2022-09-26T11:44:58.887Z,7.05
2022-09-26T11:48:13.839Z,5.32
2022-09-26T11:50:56.223Z,10.93
2022-09-26T11:53:44.491Z,11.48
2022-09-26T11:56:26.853Z,12.05
2022-09-26T11:59:06.838Z,12.07
2022-09-26T12:01:44.514Z,12.30
2022-09-26T12:04:41.437Z,10.52
2022-09-26T12:07:18.307Z,10.55
2022-09-26T12:10:04.646Z,7.97
2022-09-26T12:12:43.022Z,10.07
2022-09-26T12:15:23.785Z,10.88
2022-09-26T12:18:08.623Z,8.07
2022-09-26T12:20:43.944Z,6.95
2022-09-26T12:23:21.961Z,5.78
2022-09-26T12:26:05.390Z,5.57
2022-09-26T12:29:06.703Z,5.53
2022-09-26T12:31:49.051Z,6.35
2022-09-26T12:34:32.594Z,6.60
2022-09-26T12:37:15.249Z,8.65
2022-09-26T12:40:00.132Z,6.93
2022-09-26T12:42:48.876Z,12.32
2022-09-26T12:45:42.686Z,5.22
2022-09-26T12:48:31.561Z,4.45
2022-09-26T12:51:20.314Z,6.22
2022-09-26T12:54:11.340Z,7.30
2022-09-26T12:56:49.609Z,5.32
2022-09-26T12:59:37.819Z,8.60
2022-09-26T13:02:34.779Z,8.70
2022-09-26T13:05:31.303Z,8.73
2022-09-26T13:08:09.224Z,9.02
2022-09-26T13:10:52.504Z,10.45
2022-09-26T13:14:06.525Z,8.18
2022-09-26T13:16:45.666Z,6.15
2022-09-26T13:19:23.809Z,11.85
2022-09-26T13:22:00.738Z,8.23
2022-09-26T13:24:42.031Z,8.43
2022-09-26T13:27:17.902Z,7.80
2022-09-26T13:29:51.294Z,10.25
2022-09-26T13:32:28.135Z,8.20
2022-09-26T13:35:04.410Z,7.57
2022-09-26T13:37:43.369Z,7.90
2022-09-26T13:40:28.176Z,8.15
2022-09-26T13:43:11.254Z,8.38
2022-09-26T13:45:56.561Z,7.30
2022-09-26T13:48:38.987Z,13.50
2022-09-26T13:51:19.905Z,7.30
2022-09-26T13:53:58.206Z,10.85
2022-09-26T13:56:44.643Z,11.32
2022-09-26T13:59:36.383Z,11.77
2022-09-26T14:02:24.839Z,11.90
2022-09-26T14:05:16.175Z,8.57
2022-09-26T14:08:09.223Z,12.70
2022-09-26T14:10:55.207Z,13.70
2022-09-26T14:19:17.692Z,9.43
2022-09-26T14:22:02.787Z,10.75
2022-09-26T14:24:38.057Z,9.63
2022-09-26T14:29:49.025Z,11.15
2022-09-26T14:32:19.206Z,10.43
2022-09-26T14:34:55.443Z,12.27
2022-09-26T14:37:33.095Z,14.30
2022-09-26T14:40:24.798Z,11.10
2022-09-26T14:42:57.366Z,13.57
2022-09-26T14:45:28.343Z,12.02
2022-09-26T14:48:08.066Z,12.90
2022-09-26T14:50:46.023Z,14.90
2022-09-26T14:53:23.881Z,18.42
2022-09-26T14:55:59.946Z,15.60
2022-09-26T14:58:34.459Z,11.15
2022-09-26T15:01:06.453Z,17.67
2022-09-26T15:03:36.008Z,17.85
2022-09-26T15:06:08.977Z,14.98
2022-09-26T15:08:39.812Z,16.90
2022-09-26T15:11:08.826Z,9.63
2022-09-26T15:13:39.887Z,10.48
2022-09-26T15:16:20.450Z,13.15
2022-09-26T15:18:54.495Z,11.52
2022-09-26T15:21:34.667Z,11.15
2022-09-26T15:24:24.334Z,13.82
2022-09-26T15:26:53.419Z,8.30
2022-09-26T15:29:22.357Z,9.43
2022-09-26T15:31:51.679Z,12.63
2022-09-26T15:34:24.480Z,13.32
2022-09-26T15:36:57.160Z,9.43
2022-09-26T15:39:45.149Z,10.15
2022-09-26T15:42:48.798Z,14.55
2022-09-26T15:45:30.388Z,11.95
2022-09-26T15:48:01.826Z,18.13
2022-09-26T15:50:41.816Z,11.93
2022-09-26T15:53:22.489Z,9.90
2022-09-26T15:55:59.524Z,13.60
2022-09-26T15:58:35.802Z,12.20
2022-09-26T16:01:06.698Z,8.45
2022-09-26T16:03:49.310Z,11.20
2022-09-26T16:06:30.274Z,9.05
2022-09-26T16:09:08.750Z,9.02
2022-09-26T16:11:47.757Z,7.03
2022-09-26T16:14:31.072Z,10.73
2022-09-26T16:17:23.641Z,13.43
2022-09-26T16:20:37.240Z,11.10
2022-09-26T16:23:29.922Z,10.35
2022-09-26T16:25:59.351Z,12.98
2022-09-26T16:28:52.481Z,11.13
2022-09-26T16:31:40.825Z,11.15
2022-09-26T16:34:26.304Z,11.38
2022-09-26T16:37:17.932Z,10.65
2022-09-26T16:40:19.035Z,9.32
2022-09-26T16:42:48.621Z,14.63
2022-09-26T16:45:30.747Z,15.05
2022-09-26T16:48:37.117Z,12.65
2022-09-26T16:51:25.821Z,16.92
2022-09-26T16:53:57.939Z,16.40
2022-09-26T16:56:29.924Z,12.73
2022-09-26T16:59:00.863Z,16.98
2022-09-26T17:01:49.419Z,21.23
2022-09-26T17:04:23.796Z,19.50
2022-09-26T17:06:53.369Z,14.35
2022-09-26T17:09:24.656Z,20.75
2022-09-26T17:12:05.182Z,20.05
2022-09-26T17:14:47.135Z,20.45
2022-09-26T17:17:24.034Z,26.83
2022-09-26T17:20:04.763Z,27.92
2022-09-26T17:22:35.180Z,21.73
2022-09-26T17:25:07.116Z,27.30
2022-09-26T17:27:38.370Z,22.48
2022-09-26T17:30:19.336Z,21.30
2022-09-26T17:32:54.710Z,21.35
2022-09-26T17:35:29.379Z,22.90
2022-09-26T17:37:58.477Z,24.70
2022-09-26T17:40:33.317Z,23.02
2022-09-26T17:43:10.575Z,26.27
2022-09-26T17:45:46.966Z,19.40
2022-09-26T17:48:25.742Z,27.05
2022-09-26T17:50:56.530Z,23.10
2022-09-26T17:53:32.644Z,23.50
2022-09-26T17:56:06.149Z,19.15
2022-09-26T17:58:37.018Z,27.98
2022-09-26T18:01:22.639Z,26.35
2022-09-26T18:04:12.914Z,20.58
2022-09-26T18:06:43.132Z,23.27
2022-09-26T18:09:16.954Z,31.17
2022-09-26T18:11:52.449Z,29.23
2022-09-26T18:14:21.023Z,26.65
2022-09-26T18:16:49.764Z,23.23
2022-09-26T18:19:21.320Z,33.90
2022-09-26T18:21:55.348Z,32.53
2022-09-26T18:24:27.135Z,34.50
2022-09-26T18:27:03.454Z,37.95
2022-09-26T18:29:35.966Z,32.92
2022-09-26T18:32:13.270Z,30.63
2022-09-26T18:34:44.867Z,30.83
2022-09-26T18:37:13.602Z,25.73
2022-09-26T18:39:43.389Z,25.98
2022-09-26T18:42:22.884Z,34.85
2022-09-26T18:45:00.278Z,28.80
2022-09-26T18:47:28.816Z,33.00
2022-09-26T18:50:08.615Z,31.60
2022-09-26T18:52:37.536Z,26.48
2022-09-26T18:55:38.596Z,32.38
2022-09-26T18:58:25.402Z,31.77
2022-09-26T19:01:05.811Z,28.85
2022-09-26T19:03:38.186Z,30.58
2022-09-26T19:06:14.261Z,30.23
2022-09-26T19:08:46.896Z,27.13
2022-09-26T19:11:18.612Z,29.13
2022-09-26T19:13:49.949Z,24.80
2022-09-26T19:16:19.818Z,31.45
2022-09-26T19:18:49.556Z,32.45
2022-09-26T19:21:30.998Z,31.48
2022-09-26T19:24:03.213Z,24.67
2022-09-26T19:26:36.482Z,24.00
2022-09-26T19:29:11.975Z,28.10
2022-09-26T19:31:42.637Z,29.10
2022-09-26T19:34:16.064Z,28.92
2022-09-26T19:36:47.968Z,29.45
2022-09-26T19:39:17.350Z,31.35
2022-09-26T19:41:58.439Z,28.15
2022-09-26T19:44:31.481Z,30.17
2022-09-26T19:47:02.232Z,32.22
2022-09-26T19:49:33.220Z,34.03
2022-09-26T19:52:05.431Z,24.65
2022-09-26T19:54:38.063Z,34.08
2022-09-26T19:57:19.170Z,27.05
2022-09-26T19:59:50.886Z,31.70
2022-09-26T20:02:32.703Z,27.40
2022-09-26T20:05:01.411Z,34.88
2022-09-26T20:07:31.327Z,34.05
2022-09-26T20:09:59.790Z,28.77
2022-09-26T20:12:41.980Z,37.58
2022-09-26T20:15:13.124Z,37.10
2022-09-26T20:17:44.912Z,26.60
2022-09-26T20:20:18.490Z,29.67
2022-09-26T20:22:51.905Z,33.10
2022-09-26T20:25:27.143Z,25.35
2022-09-26T20:27:56.920Z,27.17
2022-09-26T20:30:44.488Z,36.03
2022-09-26T20:33:13.898Z,30.67
2022-09-26T20:35:45.991Z,30.92
2022-09-26T20:38:22.048Z,34.42
2022-09-26T20:40:54.438Z,23.10
2022-09-26T20:43:32.940Z,28.10
2022-09-26T20:46:05.889Z,30.83
2022-09-26T20:48:37.116Z,27.23
2022-09-26T20:51:07.448Z,26.63
2022-09-26T20:53:39.310Z,25.38
2022-09-26T20:56:17.097Z,25.38
2022-09-26T20:58:48.735Z,30.67
2022-09-26T21:01:24.117Z,35.50
2022-09-26T21:03:56.174Z,26.95
2022-09-26T21:06:28.101Z,30.02
2022-09-26T21:08:59.550Z,30.63
2022-09-26T21:11:30.557Z,33.75
2022-09-26T21:14:00.547Z,34.42
2022-09-26T21:16:30.307Z,36.30
2022-09-26T21:18:58.919Z,36.67
2022-09-26T21:21:31.134Z,28.15
2022-09-26T21:24:03.247Z,36.17
2022-09-26T21:26:34.253Z,38.72
2022-09-26T21:29:06.111Z,33.90
2022-09-26T21:31:37.103Z,34.60
2022-09-26T21:34:13.037Z,32.40
2022-09-26T21:36:42.565Z,32.83
2022-09-26T21:39:15.160Z,40.33
2022-09-26T21:41:44.522Z,33.72
2022-09-26T21:44:18.914Z,38.70
2022-09-26T21:46:49.928Z,34.88
2022-09-26T21:49:19.531Z,28.42
2022-09-26T21:51:52.372Z,35.53
2022-09-26T21:54:26.828Z,38.85
2022-09-26T21:57:06.033Z,34.72
2022-09-26T21:59:35.145Z,36.47
2022-09-26T22:02:06.086Z,37.00
2022-09-26T22:04:35.872Z,29.83
2022-09-26T22:07:05.304Z,39.35
2022-09-26T22:09:35.995Z,36.17
2022-09-26T22:12:04.602Z,41.40
2022-09-26T22:14:34.079Z,33.25
2022-09-26T22:17:03.655Z,36.17
2022-09-26T22:19:33.611Z,36.83
2022-09-26T22:22:02.638Z,36.33
2022-09-26T22:24:33.218Z,36.67
2022-09-26T22:27:03.560Z,35.72
2022-09-26T22:29:33.043Z,27.02
2022-09-26T22:32:01.809Z,35.10
2022-09-26T22:34:33.429Z,37.67
2022-09-26T22:37:01.878Z,37.85
2022-09-26T22:39:40.371Z,39.92
2022-09-26T22:42:11.944Z,44.08
2022-09-26T22:44:41.600Z,37.45
2022-09-26T22:47:11.596Z,36.67
2022-09-26T22:49:39.946Z,40.92
2022-09-26T22:52:08.432Z,35.03
2022-09-26T22:54:36.879Z,30.90
2022-09-26T22:57:05.528Z,31.13
2022-09-26T22:59:39.554Z,37.47
2022-09-26T23:02:15.599Z,35.35
2022-09-26T23:04:50.279Z,31.63
2022-09-26T23:07:20.566Z,34.88
2022-09-26T23:09:57.844Z,36.63
2022-09-26T23:12:32.742Z,35.80
2022-09-26T23:15:03.184Z,43.45
2022-09-26T23:17:33.161Z,32.63
2022-09-26T23:20:01.513Z,29.17
2022-09-26T23:22:30.519Z,35.90
2022-09-26T23:24:59.292Z,35.40
2022-09-26T23:27:28.069Z,35.88
2022-09-26T23:29:57.596Z,38.05
2022-09-26T23:32:29.398Z,38.55
2022-09-26T23:34:59.925Z,35.60
2022-09-26T23:37:28.838Z,30.10
2022-09-26T23:39:58.273Z,26.23
2022-09-26T23:42:27.070Z,35.65
2022-09-26T23:44:56.594Z,37.75
2022-09-26T23:47:25.639Z,29.27
2022-09-26T23:49:56.645Z,33.75
2022-09-26T23:52:26.377Z,41.15
2022-09-26T23:54:54.789Z,33.22
2022-09-26T23:57:25.593Z,31.67
2022-09-26T23:59:54.242Z,36.88
